Terminal Aerodrome Forecast
Issued by NWS Wilmington, OH

Current Version | Previous Version | Graphics & Text | Print | Product List | Glossary On
Versions: 1 2 3 4 5 6 7 8 9 10 11 12 13 14 15 16 17 18 19 20
000
FTUS41 KILN 272100 AAA
TAFDAY
TAF AMD
KDAY 272131Z 2722/2818 23010G18KT P6SM OVC012
     FM272300 27013G23KT P6SM -SHRA VCTS BKN015CB
     FM280100 29011KT P6SM BKN040
     FM280900 30011KT P6SM VCSH OVC015
     FM281500 31012KT P6SM -SHRA OVC025=

USA.gov is the U.S. government's official web portal to all federal, state and local government web resources and services.